createdAt,value
2022-07-28T00:02:50.198Z,13018
2022-07-28T00:08:03.004Z,13062
2022-07-28T00:13:15.538Z,13061
2022-07-28T00:18:28.154Z,13059
2022-07-28T00:23:40.699Z,13107
2022-07-28T00:28:53.118Z,13077
2022-07-28T00:34:05.846Z,13069
2022-07-28T00:39:18.455Z,13085
2022-07-28T00:44:31.049Z,13064
2022-07-28T00:49:43.564Z,13094
2022-07-28T00:54:56.027Z,13039
2022-07-28T01:00:08.615Z,13060
2022-07-28T01:05:44.619Z,13090
2022-07-28T01:10:53.289Z,13107
2022-07-28T01:16:06.717Z,12987
2022-07-28T01:21:19.248Z,13033
2022-07-28T01:26:32.594Z,13155
2022-07-28T01:31:45.316Z,13101
2022-07-28T01:36:57.959Z,13076
2022-07-28T01:42:10.604Z,13113
2022-07-28T01:47:23.029Z,13075
2022-07-28T01:52:35.618Z,13047
2022-07-28T01:57:48.905Z,12984
2022-07-28T02:03:02.025Z,13007
2022-07-28T02:08:14.516Z,13056
2022-07-28T02:13:27.249Z,13149
2022-07-28T02:18:40.563Z,13104
2022-07-28T02:23:53.024Z,13079
2022-07-28T02:29:05.194Z,13075
2022-07-28T02:34:18.785Z,13048
2022-07-28T02:39:37.817Z,13048
2022-07-28T02:44:49.788Z,13016
2022-07-28T02:50:02.334Z,13008
2022-07-28T02:55:14.453Z,13087
2022-07-28T03:00:26.429Z,13062
2022-07-28T03:05:38.946Z,13074
2022-07-28T03:10:51.268Z,13077
2022-07-28T03:16:03.470Z,13057
2022-07-28T03:21:15.761Z,13081
2022-07-28T03:26:28.148Z,13111
2022-07-28T03:31:41.149Z,12948
2022-07-28T03:36:54.178Z,12994
2022-07-28T03:42:06.408Z,13035
2022-07-28T03:47:18.809Z,13144
2022-07-28T03:52:31.139Z,13146
2022-07-28T03:57:43.607Z,13119
2022-07-28T04:02:55.757Z,13112
2022-07-28T04:08:08.338Z,13104
2022-07-28T04:13:20.638Z,13103
2022-07-28T04:18:32.780Z,13097
2022-07-28T04:23:45.122Z,13123
2022-07-28T04:28:57.469Z,13075
2022-07-28T04:34:09.951Z,13114
2022-07-28T04:39:22.910Z,13140
2022-07-28T04:44:35.193Z,13102
2022-07-28T04:49:47.380Z,13077
2022-07-28T04:54:59.712Z,13129
2022-07-28T05:00:12.885Z,13106
2022-07-28T05:05:25.419Z,13136
2022-07-28T05:10:37.676Z,13073
2022-07-28T05:15:50.089Z,13093
2022-07-28T05:21:03.867Z,13050
2022-07-28T05:26:15.904Z,13193
2022-07-28T05:31:28.413Z,13101
2022-07-28T05:36:40.805Z,13065
2022-07-28T05:41:53.144Z,13095
2022-07-28T05:47:05.565Z,13178
2022-07-28T05:52:18.066Z,13131
2022-07-28T05:57:30.525Z,13146
2022-07-28T06:02:43.167Z,13140
2022-07-28T06:07:55.765Z,13172
2022-07-28T06:13:08.255Z,13086
2022-07-28T06:18:20.945Z,13042
2022-07-28T06:23:33.377Z,13170
2022-07-28T06:28:46.015Z,13170
2022-07-28T06:33:58.637Z,13106
2022-07-28T06:39:11.378Z,13127
2022-07-28T06:44:33.206Z,13160
2022-07-28T06:50:27.053Z,13180
2022-07-28T06:55:36.935Z,13208
2022-07-28T07:00:49.307Z,13155
2022-07-28T07:06:02.236Z,13172
2022-07-28T07:11:14.906Z,13197
2022-07-28T07:16:38.081Z,13175
2022-07-28T07:21:50.899Z,13022
2022-07-28T07:27:03.607Z,13276
2022-07-28T07:32:16.213Z,13074
2022-07-28T07:37:28.786Z,13216
2022-07-28T07:42:41.411Z,13195
2022-07-28T07:47:54.111Z,13259
2022-07-28T07:53:06.764Z,13149
2022-07-28T07:58:19.271Z,13079
2022-07-28T08:03:33.118Z,13160
2022-07-28T08:08:49.008Z,13221
2022-07-28T08:14:00.994Z,13240
2022-07-28T08:19:14.369Z,13227
2022-07-28T08:24:34.301Z,13234
2022-07-28T08:29:55.217Z,13163
2022-07-28T08:35:34.900Z,13210
2022-07-28T08:40:44.617Z,13140
2022-07-28T08:45:59.102Z,13127
2022-07-28T08:51:11.118Z,12940
2022-07-28T08:56:23.905Z,13137
2022-07-28T09:01:39.675Z,13052
2022-07-28T09:06:54.837Z,13155
2022-07-28T09:12:07.685Z,13103
2022-07-28T09:17:20.464Z,13062
2022-07-28T09:22:33.352Z,13087
2022-07-28T09:27:46.115Z,13164
2022-07-28T09:32:59.103Z,13101
2022-07-28T09:38:11.841Z,12992
2022-07-28T09:43:24.765Z,13021
2022-07-28T09:48:37.921Z,12965
2022-07-28T09:53:51.098Z,13056
2022-07-28T09:59:04.857Z,13053
2022-07-28T10:04:25.808Z,13011
2022-07-28T10:09:38.601Z,12989
2022-07-28T10:14:51.454Z,13139
2022-07-28T10:20:04.359Z,13029
2022-07-28T10:30:46.143Z,13181
2022-07-28T10:35:59.097Z,13063
2022-07-28T10:41:12.081Z,13274
2022-07-28T10:46:26.565Z,13214
2022-07-28T10:52:02.780Z,13072
2022-07-28T10:58:12.348Z,13099
2022-07-28T11:03:23.295Z,13005
2022-07-28T11:08:36.354Z,13026
2022-07-28T11:13:52.796Z,12929
2022-07-28T11:19:55.522Z,13229
2022-07-28T11:25:35.879Z,13484
2022-07-28T11:30:49.338Z,14229
2022-07-28T11:36:03.228Z,13951
2022-07-28T11:41:17.399Z,13986
2022-07-28T11:51:53.171Z,13180
2022-07-28T12:12:39.046Z,13469
2022-07-28T12:17:52.158Z,13546
2022-07-28T12:28:19.060Z,13662
2022-07-28T12:33:31.081Z,13307
2022-07-28T12:38:43.634Z,13719
2022-07-28T12:43:56.589Z,13310
2022-07-28T12:49:10.133Z,12941
2022-07-28T12:54:23.502Z,12911
2022-07-28T12:59:36.224Z,13267
2022-07-28T13:10:01.037Z,13251
2022-07-28T13:30:45.572Z,13238
2022-07-28T13:46:21.551Z,12958
2022-07-28T13:51:35.108Z,12992
2022-07-28T14:12:18.706Z,13320
2022-07-28T14:17:45.799Z,12932
2022-07-28T14:33:17.108Z,13407
2022-07-28T14:54:03.348Z,13393
2022-07-28T15:04:27.289Z,12908
2022-07-28T15:09:48.752Z,13276
2022-07-28T15:20:11.140Z,13070
2022-07-28T15:30:49.347Z,12918
2022-07-28T15:36:00.194Z,13128
2022-07-28T15:46:23.588Z,13154
2022-07-28T15:56:48.108Z,12905
2022-07-28T16:02:00.891Z,12967
2022-07-28T16:12:24.101Z,13086
2022-07-28T16:17:40.548Z,13155
2022-07-28T16:28:05.529Z,13101
2022-07-28T16:33:18.178Z,13094
2022-07-28T16:38:30.982Z,13124
2022-07-28T16:43:45.138Z,12910
2022-07-28T16:48:57.363Z,13045
2022-07-28T16:54:10.168Z,13055
2022-07-28T16:59:22.849Z,12984
2022-07-28T17:09:56.308Z,12974
2022-07-28T17:20:19.372Z,12969
2022-07-28T17:26:52.518Z,12901
2022-07-28T17:38:01.481Z,12911
2022-07-28T17:48:24.122Z,13219
2022-07-28T17:53:39.832Z,12981
2022-07-28T18:14:32.982Z,13035
2022-07-28T18:30:06.599Z,12957
2022-07-28T18:35:19.009Z,13000
2022-07-28T18:40:31.533Z,13020
2022-07-28T18:45:44.144Z,12967
2022-07-28T18:50:56.611Z,12967
2022-07-28T18:56:09.702Z,13057
2022-07-28T19:01:22.222Z,12999
2022-07-28T19:06:34.803Z,13060
2022-07-28T19:11:47.390Z,12985
2022-07-28T19:16:59.666Z,12978
2022-07-28T19:22:12.213Z,13057
2022-07-28T19:27:31.093Z,13066
2022-07-28T19:32:46.004Z,13047
2022-07-28T19:37:59.677Z,13038
2022-07-28T19:43:13.452Z,13085
2022-07-28T19:48:25.843Z,13055
2022-07-28T19:53:41.082Z,13114
2022-07-28T19:59:00.662Z,13077
2022-07-28T20:04:13.536Z,13121
2022-07-28T20:09:26.390Z,13113
2022-07-28T20:14:39.210Z,13029
2022-07-28T20:19:51.856Z,13144
2022-07-28T20:25:04.206Z,13184
2022-07-28T20:30:23.031Z,13110
2022-07-28T20:35:35.544Z,13144
2022-07-28T20:40:48.480Z,13127
2022-07-28T20:46:03.288Z,13033
2022-07-28T20:51:16.221Z,13071
2022-07-28T20:56:28.871Z,13060
2022-07-28T21:01:41.674Z,13047
2022-07-28T21:07:04.373Z,12998
2022-07-28T21:12:17.500Z,13143
2022-07-28T21:17:32.122Z,13003
2022-07-28T21:22:44.697Z,13006
2022-07-28T21:27:57.301Z,13077
2022-07-28T21:33:10.216Z,13093
2022-07-28T21:38:22.702Z,13104
2022-07-28T21:43:35.301Z,13098
2022-07-28T21:48:47.766Z,13077
2022-07-28T21:54:00.503Z,13151
2022-07-28T21:59:12.810Z,13070
2022-07-28T22:04:26.119Z,13060
2022-07-28T22:09:38.491Z,13091
2022-07-28T22:14:50.957Z,13082
2022-07-28T22:20:03.343Z,13060
2022-07-28T22:25:15.790Z,13055
2022-07-28T22:30:27.987Z,13048
2022-07-28T22:35:40.179Z,13041
2022-07-28T22:40:52.686Z,13073
2022-07-28T22:46:05.363Z,13099
2022-07-28T22:51:17.918Z,13100
2022-07-28T22:56:37.945Z,13069
2022-07-28T23:01:53.144Z,13050
2022-07-28T23:07:13.400Z,13084
2022-07-28T23:12:27.899Z,13118
2022-07-28T23:17:40.475Z,13117
2022-07-28T23:22:53.166Z,13063
2022-07-28T23:28:05.686Z,13020
2022-07-28T23:33:57.600Z,13075
2022-07-28T23:39:05.476Z,13080
2022-07-28T23:44:18.526Z,13082
2022-07-28T23:49:31.085Z,13014
2022-07-28T23:54:43.555Z,13029
2022-07-28T23:59:56.117Z,13009
